sensor_id;sensor_type;location;lat;lon;timestamp;pressure;altitude;pressure_sealevel;temperature;humidity
19086;BME280;9675;51.538;6.728;2023-03-16T00:01:20;101576.94;;;7.16;61.08
19086;BME280;9675;51.538;6.728;2023-03-16T00:03:47;101571.59;;;7.13;61.87
19086;BME280;9675;51.538;6.728;2023-03-16T00:06:14;101570.44;;;7.10;61.76
19086;BME280;9675;51.538;6.728;2023-03-16T00:08:42;101564.34;;;7.08;61.92
19086;BME280;9675;51.538;6.728;2023-03-16T00:11:09;101566.66;;;7.05;62.37
19086;BME280;9675;51.538;6.728;2023-03-16T00:13:37;101571.44;;;7.00;62.16
19086;BME280;9675;51.538;6.728;2023-03-16T00:16:04;101570.44;;;6.98;62.31
19086;BME280;9675;51.538;6.728;2023-03-16T00:18:32;101558.28;;;6.96;62.29
19086;BME280;9675;51.538;6.728;2023-03-16T00:21:04;101567.41;;;6.92;62.44
19086;BME280;9675;51.538;6.728;2023-03-16T00:23:32;101564.53;;;6.88;61.71
19086;BME280;9675;51.538;6.728;2023-03-16T00:26:04;101569.50;;;6.86;62.33
19086;BME280;9675;51.538;6.728;2023-03-16T00:28:33;101562.59;;;6.85;61.91
19086;BME280;9675;51.538;6.728;2023-03-16T00:31:01;101555.47;;;6.81;62.84
19086;BME280;9675;51.538;6.728;2023-03-16T00:33:28;101557.00;;;6.79;62.03
19086;BME280;9675;51.538;6.728;2023-03-16T00:35:59;101549.00;;;6.74;62.66
19086;BME280;9675;51.538;6.728;2023-03-16T00:38:32;101562.69;;;6.75;63.16
19086;BME280;9675;51.538;6.728;2023-03-16T00:41:03;101555.78;;;6.74;63.59
19086;BME280;9675;51.538;6.728;2023-03-16T00:43:30;101547.88;;;6.71;62.87
19086;BME280;9675;51.538;6.728;2023-03-16T00:46:06;101551.22;;;6.70;63.60
19086;BME280;9675;51.538;6.728;2023-03-16T00:48:35;101554.53;;;6.69;63.97
19086;BME280;9675;51.538;6.728;2023-03-16T00:51:04;101562.00;;;6.66;64.45
19086;BME280;9675;51.538;6.728;2023-03-16T00:53:32;101560.97;;;6.64;64.35
19086;BME280;9675;51.538;6.728;2023-03-16T00:56:00;101570.09;;;6.60;64.59
19086;BME280;9675;51.538;6.728;2023-03-16T00:58:30;101565.66;;;6.58;64.63
19086;BME280;9675;51.538;6.728;2023-03-16T01:01:00;101556.94;;;6.56;64.87
19086;BME280;9675;51.538;6.728;2023-03-16T01:03:27;101547.47;;;6.55;64.89
19086;BME280;9675;51.538;6.728;2023-03-16T01:05:54;101543.13;;;6.54;65.79
19086;BME280;9675;51.538;6.728;2023-03-16T01:08:24;101544.69;;;6.52;65.02
19086;BME280;9675;51.538;6.728;2023-03-16T01:10:53;101540.47;;;6.52;65.46
19086;BME280;9675;51.538;6.728;2023-03-16T01:13:21;101537.78;;;6.51;66.02
19086;BME280;9675;51.538;6.728;2023-03-16T01:15:51;101527.34;;;6.48;65.97
19086;BME280;9675;51.538;6.728;2023-03-16T01:18:18;101521.97;;;6.45;65.45
19086;BME280;9675;51.538;6.728;2023-03-16T01:20:45;101526.88;;;6.42;66.27
19086;BME280;9675;51.538;6.728;2023-03-16T01:23:15;101526.53;;;6.37;65.47
19086;BME280;9675;51.538;6.728;2023-03-16T01:25:43;101521.03;;;6.32;65.86
19086;BME280;9675;51.538;6.728;2023-03-16T01:28:18;101523.47;;;6.31;66.32
19086;BME280;9675;51.538;6.728;2023-03-16T01:30:45;101522.47;;;6.29;66.61
19086;BME280;9675;51.538;6.728;2023-03-16T01:33:14;101508.56;;;6.25;66.19
19086;BME280;9675;51.538;6.728;2023-03-16T01:35:41;101502.41;;;6.23;66.27
19086;BME280;9675;51.538;6.728;2023-03-16T01:38:07;101500.75;;;6.24;66.59
19086;BME280;9675;51.538;6.728;2023-03-16T01:40:34;101504.97;;;6.23;67.04
19086;BME280;9675;51.538;6.728;2023-03-16T01:43:05;101492.19;;;6.23;66.78
19086;BME280;9675;51.538;6.728;2023-03-16T01:46:17;101490.41;;;6.22;66.83
19086;BME280;9675;51.538;6.728;2023-03-16T01:49:02;101485.97;;;6.20;67.13
19086;BME280;9675;51.538;6.728;2023-03-16T01:51:38;101483.41;;;6.20;67.60
19086;BME280;9675;51.538;6.728;2023-03-16T01:54:17;101484.31;;;6.20;67.82
19086;BME280;9675;51.538;6.728;2023-03-16T01:56:54;101480.38;;;6.14;67.62
19086;BME280;9675;51.538;6.728;2023-03-16T01:59:31;101479.59;;;6.15;67.80
19086;BME280;9675;51.538;6.728;2023-03-16T02:02:00;101479.47;;;6.13;67.81
19086;BME280;9675;51.538;6.728;2023-03-16T02:04:47;101476.91;;;6.13;68.52
19086;BME280;9675;51.538;6.728;2023-03-16T02:07:18;101474.22;;;6.12;68.25
19086;BME280;9675;51.538;6.728;2023-03-16T02:09:50;101471.47;;;6.09;68.71
19086;BME280;9675;51.538;6.728;2023-03-16T02:12:20;101470.69;;;6.10;68.57
19086;BME280;9675;51.538;6.728;2023-03-16T02:14:50;101462.88;;;6.08;68.43
19086;BME280;9675;51.538;6.728;2023-03-16T02:17:20;101462.75;;;6.07;68.37
19086;BME280;9675;51.538;6.728;2023-03-16T02:20:00;101460.13;;;6.05;68.93
19086;BME280;9675;51.538;6.728;2023-03-16T02:22:34;101457.44;;;6.04;69.48
19086;BME280;9675;51.538;6.728;2023-03-16T02:25:02;101462.41;;;6.02;69.76
19086;BME280;9675;51.538;6.728;2023-03-16T02:27:40;101451.84;;;5.97;69.55
19086;BME280;9675;51.538;6.728;2023-03-16T02:30:13;101446.59;;;5.96;69.54
19086;BME280;9675;51.538;6.728;2023-03-16T02:32:42;101436.38;;;5.96;70.03
19086;BME280;9675;51.538;6.728;2023-03-16T02:35:10;101440.72;;;5.97;70.39
19086;BME280;9675;51.538;6.728;2023-03-16T02:37:38;101439.59;;;5.93;70.48
19086;BME280;9675;51.538;6.728;2023-03-16T02:40:21;101439.72;;;5.95;71.18
19086;BME280;9675;51.538;6.728;2023-03-16T02:42:54;101434.63;;;5.95;70.99
19086;BME280;9675;51.538;6.728;2023-03-16T02:45:28;101428.50;;;5.93;70.95
19086;BME280;9675;51.538;6.728;2023-03-16T02:48:01;101423.03;;;5.88;70.90
19086;BME280;9675;51.538;6.728;2023-03-16T02:50:31;101419.56;;;5.88;71.44
19086;BME280;9675;51.538;6.728;2023-03-16T02:52:58;101415.22;;;5.87;71.52
19086;BME280;9675;51.538;6.728;2023-03-16T02:55:25;101421.22;;;5.87;71.42
19086;BME280;9675;51.538;6.728;2023-03-16T02:57:52;101415.88;;;5.84;71.86
19086;BME280;9675;51.538;6.728;2023-03-16T03:00:20;101415.09;;;5.85;71.85
19086;BME280;9675;51.538;6.728;2023-03-16T03:02:49;101413.41;;;5.86;72.63
19086;BME280;9675;51.538;6.728;2023-03-16T03:05:17;101411.66;;;5.85;72.48
19086;BME280;9675;51.538;6.728;2023-03-16T03:07:44;101409.88;;;5.84;73.12
19086;BME280;9675;51.538;6.728;2023-03-16T03:10:11;101401.19;;;5.82;72.76
19086;BME280;9675;51.538;6.728;2023-03-16T03:12:38;101398.63;;;5.82;72.77
19086;BME280;9675;51.538;6.728;2023-03-16T03:15:07;101401.19;;;5.82;71.98
19086;BME280;9675;51.538;6.728;2023-03-16T03:17:34;101388.41;;;5.82;72.70
19086;BME280;9675;51.538;6.728;2023-03-16T03:20:04;101397.63;;;5.80;72.91
19086;BME280;9675;51.538;6.728;2023-03-16T03:22:38;101400.94;;;5.79;73.45
19086;BME280;9675;51.538;6.728;2023-03-16T03:25:06;101394.94;;;5.78;73.15
19086;BME280;9675;51.538;6.728;2023-03-16T03:27:33;101399.16;;;5.78;73.23
19086;BME280;9675;51.538;6.728;2023-03-16T03:30:00;101389.56;;;5.75;72.57
19086;BME280;9675;51.538;6.728;2023-03-16T03:32:28;101393.84;;;5.75;72.92
19086;BME280;9675;51.538;6.728;2023-03-16T03:34:55;101394.59;;;5.74;72.84
19086;BME280;9675;51.538;6.728;2023-03-16T03:37:23;101380.03;;;5.73;73.31
19086;BME280;9675;51.538;6.728;2023-03-16T03:39:50;101379.13;;;5.72;73.61
19086;BME280;9675;51.538;6.728;2023-03-16T03:42:18;101382.59;;;5.73;72.82
19086;BME280;9675;51.538;6.728;2023-03-16T03:44:45;101383.34;;;5.72;73.53
19086;BME280;9675;51.538;6.728;2023-03-16T03:47:12;101384.91;;;5.70;73.45
19086;BME280;9675;51.538;6.728;2023-03-16T03:49:39;101380.56;;;5.69;73.49
19086;BME280;9675;51.538;6.728;2023-03-16T03:52:06;101389.00;;;5.68;73.97
19086;BME280;9675;51.538;6.728;2023-03-16T03:54:35;101384.66;;;5.67;74.38
19086;BME280;9675;51.538;6.728;2023-03-16T03:57:02;101380.56;;;5.69;73.58
19086;BME280;9675;51.538;6.728;2023-03-16T03:59:29;101388.88;;;5.66;74.37
19086;BME280;9675;51.538;6.728;2023-03-16T04:01:56;101378.44;;;5.63;74.54
19086;BME280;9675;51.538;6.728;2023-03-16T04:04:23;101373.31;;;5.63;74.13
19086;BME280;9675;51.538;6.728;2023-03-16T04:06:50;101382.66;;;5.63;74.77
19086;BME280;9675;51.538;6.728;2023-03-16T04:09:17;101380.22;;;5.64;75.36
19086;BME280;9675;51.538;6.728;2023-03-16T04:11:46;101380.22;;;5.64;75.51
19086;BME280;9675;51.538;6.728;2023-03-16T04:14:13;101379.34;;;5.64;75.31
19086;BME280;9675;51.538;6.728;2023-03-16T04:16:40;101372.31;;;5.61;75.51
19086;BME280;9675;51.538;6.728;2023-03-16T04:19:09;101363.75;;;5.61;75.45
19086;BME280;9675;51.538;6.728;2023-03-16T04:21:36;101350.22;;;5.62;76.01
19086;BME280;9675;51.538;6.728;2023-03-16T04:24:04;101351.09;;;5.62;76.52
19086;BME280;9675;51.538;6.728;2023-03-16T04:26:31;101346.00;;;5.62;76.03
19086;BME280;9675;51.538;6.728;2023-03-16T04:29:00;101350.09;;;5.60;76.85
19086;BME280;9675;51.538;6.728;2023-03-16T04:31:28;101341.53;;;5.60;77.25
19086;BME280;9675;51.538;6.728;2023-03-16T04:33:55;101344.06;;;5.60;77.48
19086;BME280;9675;51.538;6.728;2023-03-16T04:36:22;101347.31;;;5.57;77.81
19086;BME280;9675;51.538;6.728;2023-03-16T04:38:51;101342.97;;;5.56;77.83
19086;BME280;9675;51.538;6.728;2023-03-16T04:41:18;101339.50;;;5.55;77.93
19086;BME280;9675;51.538;6.728;2023-03-16T04:43:46;101350.50;;;5.54;79.03
19086;BME280;9675;51.538;6.728;2023-03-16T04:46:14;101340.28;;;5.54;79.61
19086;BME280;9675;51.538;6.728;2023-03-16T04:48:46;101352.28;;;5.55;79.12
19086;BME280;9675;51.538;6.728;2023-03-16T04:51:15;101341.09;;;5.53;79.87
19086;BME280;9675;51.538;6.728;2023-03-16T04:53:42;101335.97;;;5.53;80.06
19086;BME280;9675;51.538;6.728;2023-03-16T04:56:11;101346.19;;;5.53;80.29
19086;BME280;9675;51.538;6.728;2023-03-16T04:58:46;101349.50;;;5.52;80.49
19086;BME280;9675;51.538;6.728;2023-03-16T05:01:20;101353.06;;;5.54;80.73
19086;BME280;9675;51.538;6.728;2023-03-16T05:03:47;101341.97;;;5.54;79.86
19086;BME280;9675;51.538;6.728;2023-03-16T05:06:14;101326.66;;;5.54;80.01
19086;BME280;9675;51.538;6.728;2023-03-16T05:08:41;101335.97;;;5.53;80.53
19086;BME280;9675;51.538;6.728;2023-03-16T05:11:09;101335.84;;;5.52;80.96
19086;BME280;9675;51.538;6.728;2023-03-16T05:13:36;101341.72;;;5.51;81.01
19086;BME280;9675;51.538;6.728;2023-03-16T05:16:03;101341.59;;;5.49;81.40
19086;BME280;9675;51.538;6.728;2023-03-16T05:18:32;101322.06;;;5.50;81.29
19086;BME280;9675;51.538;6.728;2023-03-16T05:20:59;101325.50;;;5.50;81.52
19086;BME280;9675;51.538;6.728;2023-03-16T05:23:26;101320.31;;;5.49;81.17
19086;BME280;9675;51.538;6.728;2023-03-16T05:25:53;101328.81;;;5.49;81.87
19086;BME280;9675;51.538;6.728;2023-03-16T05:28:24;101336.38;;;5.48;81.77
19086;BME280;9675;51.538;6.728;2023-03-16T05:30:51;101335.50;;;5.47;81.92
19086;BME280;9675;51.538;6.728;2023-03-16T05:33:18;101334.47;;;5.45;81.80
19086;BME280;9675;51.538;6.728;2023-03-16T05:35:47;101336.13;;;5.45;81.75
19086;BME280;9675;51.538;6.728;2023-03-16T05:38:15;101341.38;;;5.46;82.38
19086;BME280;9675;51.538;6.728;2023-03-16T05:40:43;101338.94;;;5.48;82.73
19086;BME280;9675;51.538;6.728;2023-03-16T05:43:10;101337.28;;;5.48;82.38
19086;BME280;9675;51.538;6.728;2023-03-16T05:45:38;101338.94;;;5.48;82.79
19086;BME280;9675;51.538;6.728;2023-03-16T05:48:05;101334.59;;;5.47;83.40
19086;BME280;9675;51.538;6.728;2023-03-16T05:50:32;101335.25;;;5.44;82.84
19086;BME280;9675;51.538;6.728;2023-03-16T05:53:00;101326.59;;;5.42;83.49
19086;BME280;9675;51.538;6.728;2023-03-16T05:55:28;101327.34;;;5.41;83.27
19086;BME280;9675;51.538;6.728;2023-03-16T05:57:55;101330.94;;;5.43;83.57
19086;BME280;9675;51.538;6.728;2023-03-16T06:00:23;101335.91;;;5.42;83.67
19086;BME280;9675;51.538;6.728;2023-03-16T06:02:52;101334.88;;;5.40;84.02
19086;BME280;9675;51.538;6.728;2023-03-16T06:05:21;101341.91;;;5.42;83.79
19086;BME280;9675;51.538;6.728;2023-03-16T06:07:49;101346.25;;;5.43;84.87
19086;BME280;9675;51.538;6.728;2023-03-16T06:10:19;101351.44;;;5.45;84.29
19086;BME280;9675;51.538;6.728;2023-03-16T06:12:46;101348.81;;;5.43;84.81
19086;BME280;9675;51.538;6.728;2023-03-16T06:15:13;101347.78;;;5.41;85.42
19086;BME280;9675;51.538;6.728;2023-03-16T06:17:40;101346.13;;;5.42;85.66
19086;BME280;9675;51.538;6.728;2023-03-16T06:20:10;101340.13;;;5.41;85.93
19086;BME280;9675;51.538;6.728;2023-03-16T06:22:40;101343.44;;;5.40;86.57
19086;BME280;9675;51.538;6.728;2023-03-16T06:25:09;101347.56;;;5.38;87.18
19086;BME280;9675;51.538;6.728;2023-03-16T06:27:38;101340.88;;;5.40;87.11
19086;BME280;9675;51.538;6.728;2023-03-16T06:30:08;101341.66;;;5.39;87.57
19086;BME280;9675;51.538;6.728;2023-03-16T06:32:37;101350.22;;;5.40;87.13
19086;BME280;9675;51.538;6.728;2023-03-16T06:35:08;101344.19;;;5.39;87.61
19086;BME280;9675;51.538;6.728;2023-03-16T06:37:35;101348.53;;;5.40;87.70
19086;BME280;9675;51.538;6.728;2023-03-16T06:40:03;101349.44;;;5.41;88.01
19086;BME280;9675;51.538;6.728;2023-03-16T06:42:30;101350.34;;;5.41;88.49
19086;BME280;9675;51.538;6.728;2023-03-16T06:44:59;101344.19;;;5.39;89.19
19086;BME280;9675;51.538;6.728;2023-03-16T06:47:26;101350.22;;;5.40;89.23
19086;BME280;9675;51.538;6.728;2023-03-16T06:49:53;101344.34;;;5.41;88.94
19086;BME280;9675;51.538;6.728;2023-03-16T06:52:21;101348.53;;;5.40;88.99
19086;BME280;9675;51.538;6.728;2023-03-16T06:54:48;101347.66;;;5.40;89.70
19086;BME280;9675;51.538;6.728;2023-03-16T06:57:15;101358.13;;;5.43;89.67
19086;BME280;9675;51.538;6.728;2023-03-16T06:59:42;101356.56;;;5.45;89.81
19086;BME280;9675;51.538;6.728;2023-03-16T07:02:11;101349.03;;;5.46;89.45
19086;BME280;9675;51.538;6.728;2023-03-16T07:04:39;101348.41;;;5.49;88.89
19086;BME280;9675;51.538;6.728;2023-03-16T07:07:07;101348.41;;;5.49;89.40
19086;BME280;9675;51.538;6.728;2023-03-16T07:09:36;101347.72;;;5.51;89.13
19086;BME280;9675;51.538;6.728;2023-03-16T07:12:04;101343.63;;;5.53;89.44
19086;BME280;9675;51.538;6.728;2023-03-16T07:14:31;101352.28;;;5.55;89.41
19086;BME280;9675;51.538;6.728;2023-03-16T07:16:58;101355.88;;;5.57;89.25
19086;BME280;9675;51.538;6.728;2023-03-16T07:19:27;101363.53;;;5.57;88.86
19086;BME280;9675;51.538;6.728;2023-03-16T07:21:56;101358.53;;;5.59;88.48
19086;BME280;9675;51.538;6.728;2023-03-16T07:24:23;101362.22;;;5.63;88.58
19086;BME280;9675;51.538;6.728;2023-03-16T07:26:50;101360.69;;;5.65;88.38
19086;BME280;9675;51.538;6.728;2023-03-16T07:29:17;101365.00;;;5.66;89.03
19086;BME280;9675;51.538;6.728;2023-03-16T07:31:44;101361.66;;;5.67;88.63
19086;BME280;9675;51.538;6.728;2023-03-16T07:34:11;101353.25;;;5.68;88.70
19086;BME280;9675;51.538;6.728;2023-03-16T07:36:40;101352.69;;;5.72;89.92
19086;BME280;9675;51.538;6.728;2023-03-16T07:39:07;101352.94;;;5.75;90.00
19086;BME280;9675;51.538;6.728;2023-03-16T07:41:34;101358.16;;;5.76;89.18
19086;BME280;9675;51.538;6.728;2023-03-16T07:44:01;101360.97;;;5.79;89.25
19086;BME280;9675;51.538;6.728;2023-03-16T07:46:28;101368.72;;;5.81;89.49
19086;BME280;9675;51.538;6.728;2023-03-16T07:48:57;101362.97;;;5.83;89.30
19086;BME280;9675;51.538;6.728;2023-03-16T07:51:24;101367.41;;;5.86;89.42
19086;BME280;9675;51.538;6.728;2023-03-16T07:53:53;101361.69;;;5.88;88.68
19086;BME280;9675;51.538;6.728;2023-03-16T07:56:20;101354.16;;;5.90;89.73
19086;BME280;9675;51.538;6.728;2023-03-16T07:58:47;101351.69;;;5.91;89.37
19086;BME280;9675;51.538;6.728;2023-03-16T08:01:14;101352.59;;;5.92;88.63
19086;BME280;9675;51.538;6.728;2023-03-16T08:03:41;101356.16;;;5.94;88.37
19086;BME280;9675;51.538;6.728;2023-03-16T08:06:09;101352.84;;;5.95;89.17
19086;BME280;9675;51.538;6.728;2023-03-16T08:08:36;101355.59;;;5.98;88.98
19086;BME280;9675;51.538;6.728;2023-03-16T08:11:05;101359.94;;;5.99;89.41
19086;BME280;9675;51.538;6.728;2023-03-16T08:13:32;101358.38;;;6.01;88.63
19086;BME280;9675;51.538;6.728;2023-03-16T08:16:00;101353.41;;;6.03;88.82
19086;BME280;9675;51.538;6.728;2023-03-16T08:18:28;101350.97;;;6.04;88.64
19086;BME280;9675;51.538;6.728;2023-03-16T08:20:56;101354.41;;;6.05;87.71
19086;BME280;9675;51.538;6.728;2023-03-16T08:23:24;101354.53;;;6.06;87.11
19086;BME280;9675;51.538;6.728;2023-03-16T08:25:52;101343.50;;;6.07;87.30
19086;BME280;9675;51.538;6.728;2023-03-16T08:28:21;101345.28;;;6.08;87.27
19086;BME280;9675;51.538;6.728;2023-03-16T08:30:52;101348.88;;;6.10;87.67
19086;BME280;9675;51.538;6.728;2023-03-16T08:33:20;101344.66;;;6.11;87.86
19086;BME280;9675;51.538;6.728;2023-03-16T08:35:47;101347.31;;;6.12;87.66
19086;BME280;9675;51.538;6.728;2023-03-16T08:38:15;101350.88;;;6.14;87.28
19086;BME280;9675;51.538;6.728;2023-03-16T08:40:43;101348.31;;;6.14;86.80
19086;BME280;9675;51.538;6.728;2023-03-16T08:43:13;101349.22;;;6.15;86.75
19086;BME280;9675;51.538;6.728;2023-03-16T08:45:44;101355.22;;;6.15;86.95
19086;BME280;9675;51.538;6.728;2023-03-16T08:48:11;101359.56;;;6.16;86.50
19086;BME280;9675;51.538;6.728;2023-03-16T08:50:39;101364.00;;;6.19;86.18
19086;BME280;9675;51.538;6.728;2023-03-16T08:53:08;101354.66;;;6.19;85.84
19086;BME280;9675;51.538;6.728;2023-03-16T08:55:35;101345.47;;;6.21;86.64
19086;BME280;9675;51.538;6.728;2023-03-16T08:58:03;101349.00;;;6.23;86.83
19086;BME280;9675;51.538;6.728;2023-03-16T09:00:30;101355.91;;;6.24;87.05
19086;BME280;9675;51.538;6.728;2023-03-16T09:02:58;101356.91;;;6.26;87.95
19086;BME280;9675;51.538;6.728;2023-03-16T09:05:27;101350.22;;;6.28;87.89
19086;BME280;9675;51.538;6.728;2023-03-16T09:07:55;101358.91;;;6.30;89.61
19086;BME280;9675;51.538;6.728;2023-03-16T09:10:24;101358.91;;;6.30;89.37
19086;BME280;9675;51.538;6.728;2023-03-16T09:12:52;101351.25;;;6.30;90.25
19086;BME280;9675;51.538;6.728;2023-03-16T09:15:20;101353.25;;;6.34;90.54
19086;BME280;9675;51.538;6.728;2023-03-16T09:17:47;101359.38;;;6.36;90.49
19086;BME280;9675;51.538;6.728;2023-03-16T09:20:17;101362.16;;;6.39;91.04
19086;BME280;9675;51.538;6.728;2023-03-16T09:22:45;101351.16;;;6.40;91.78
19086;BME280;9675;51.538;6.728;2023-03-16T09:25:12;101344.47;;;6.43;91.80
19086;BME280;9675;51.538;6.728;2023-03-16T09:27:40;101345.47;;;6.45;93.10
19086;BME280;9675;51.538;6.728;2023-03-16T09:30:09;101344.91;;;6.49;92.70
19086;BME280;9675;51.538;6.728;2023-03-16T09:32:36;101344.38;;;6.53;94.89
19086;BME280;9675;51.538;6.728;2023-03-16T09:35:04;101342.03;;;6.56;94.36
19086;BME280;9675;51.538;6.728;2023-03-16T09:37:33;101342.25;;;6.59;93.35
19086;BME280;9675;51.538;6.728;2023-03-16T09:40:01;101333.81;;;6.60;93.77
19086;BME280;9675;51.538;6.728;2023-03-16T09:42:35;101332.25;;;6.62;94.33
19086;BME280;9675;51.538;6.728;2023-03-16T09:45:14;101324.03;;;6.66;95.51
19086;BME280;9675;51.538;6.728;2023-03-16T09:47:48;101314.00;;;6.69;95.60
19086;BME280;9675;51.538;6.728;2023-03-16T09:50:31;101326.25;;;6.73;95.41
19086;BME280;9675;51.538;6.728;2023-03-16T09:53:10;101315.34;;;6.75;94.74
19086;BME280;9675;51.538;6.728;2023-03-16T09:59:08;101311.75;;;6.85;93.07
19086;BME280;9675;51.538;6.728;2023-03-16T10:02:09;101308.44;;;6.86;91.87
19086;BME280;9675;51.538;6.728;2023-03-16T10:04:59;101302.84;;;6.92;91.42
19086;BME280;9675;51.538;6.728;2023-03-16T10:07:43;101295.28;;;6.93;90.96
19086;BME280;9675;51.538;6.728;2023-03-16T10:10:34;101283.72;;;6.98;91.78
19086;BME280;9675;51.538;6.728;2023-03-16T10:13:16;101286.59;;;7.03;89.70
19086;BME280;9675;51.538;6.728;2023-03-16T10:15:48;101279.88;;;7.05;89.51
19086;BME280;9675;51.538;6.728;2023-03-16T10:18:21;101278.34;;;7.07;89.46
19086;BME280;9675;51.538;6.728;2023-03-16T10:20:52;101287.91;;;7.09;87.96
19086;BME280;9675;51.538;6.728;2023-03-16T10:23:22;101282.09;;;7.12;86.75
19086;BME280;9675;51.538;6.728;2023-03-16T10:25:53;101281.44;;;7.14;87.18
19086;BME280;9675;51.538;6.728;2023-03-16T10:28:23;101287.66;;;7.18;86.62
19086;BME280;9675;51.538;6.728;2023-03-16T10:30:52;101281.84;;;7.20;86.85
19086;BME280;9675;51.538;6.728;2023-03-16T10:33:24;101281.19;;;7.23;85.85
19086;BME280;9675;51.538;6.728;2023-03-16T10:35:59;101278.94;;;7.28;86.61
19086;BME280;9675;51.538;6.728;2023-03-16T10:38:33;101279.94;;;7.30;85.14
19086;BME280;9675;51.538;6.728;2023-03-16T10:41:18;101263.00;;;7.32;85.88
19086;BME280;9675;51.538;6.728;2023-03-16T10:43:50;101249.63;;;7.36;86.03
19086;BME280;9675;51.538;6.728;2023-03-16T10:46:19;101249.94;;;7.40;85.97
19086;BME280;9675;51.538;6.728;2023-03-16T10:48:55;101246.81;;;7.44;84.78
19086;BME280;9675;51.538;6.728;2023-03-16T10:51:28;101253.91;;;7.48;83.95
19086;BME280;9675;51.538;6.728;2023-03-16T10:54:06;101242.31;;;7.53;83.14
19086;BME280;9675;51.538;6.728;2023-03-16T10:56:36;101250.28;;;7.58;81.97
19086;BME280;9675;51.538;6.728;2023-03-16T10:59:28;101242.03;;;7.62;81.81
19086;BME280;9675;51.538;6.728;2023-03-16T11:01:57;101232.97;;;7.67;80.57
19086;BME280;9675;51.538;6.728;2023-03-16T11:04:24;101240.09;;;7.71;79.44
19086;BME280;9675;51.538;6.728;2023-03-16T11:06:57;101230.25;;;7.77;80.51
19086;BME280;9675;51.538;6.728;2023-03-16T11:09:30;101228.88;;;7.82;80.58
19086;BME280;9675;51.538;6.728;2023-03-16T11:12:12;101234.41;;;7.88;79.35
19086;BME280;9675;51.538;6.728;2023-03-16T11:14:43;101228.13;;;7.96;78.74
19086;BME280;9675;51.538;6.728;2023-03-16T11:17:15;101221.72;;;8.03;77.84
19086;BME280;9675;51.538;6.728;2023-03-16T11:19:51;101214.63;;;8.12;76.95
19086;BME280;9675;51.538;6.728;2023-03-16T11:22:22;101215.09;;;8.20;77.41
19086;BME280;9675;51.538;6.728;2023-03-16T11:24:55;101199.31;;;8.27;75.96
19086;BME280;9675;51.538;6.728;2023-03-16T11:27:36;101200.94;;;8.38;74.76
19086;BME280;9675;51.538;6.728;2023-03-16T11:30:15;101200.03;;;8.50;72.71
19086;BME280;9675;51.538;6.728;2023-03-16T11:32:49;101195.78;;;8.64;71.09
19086;BME280;9675;51.538;6.728;2023-03-16T11:35:21;101192.28;;;8.77;69.81
19086;BME280;9675;51.538;6.728;2023-03-16T11:38:12;101191.66;;;8.94;68.35
19086;BME280;9675;51.538;6.728;2023-03-16T11:40:53;101171.75;;;9.05;67.62
19086;BME280;9675;51.538;6.728;2023-03-16T11:43:47;101175.41;;;9.23;66.07
19086;BME280;9675;51.538;6.728;2023-03-16T11:46:21;101166.03;;;9.38;65.06
19086;BME280;9675;51.538;6.728;2023-03-16T11:48:59;101163.22;;;9.48;63.53
19086;BME280;9675;51.538;6.728;2023-03-16T11:51:39;101165.72;;;9.61;61.97
19086;BME280;9675;51.538;6.728;2023-03-16T11:54:31;101154.38;;;9.72;61.49
19086;BME280;9675;51.538;6.728;2023-03-16T11:57:08;101159.25;;;9.82;60.95
19086;BME280;9675;51.538;6.728;2023-03-16T12:00:10;101150.63;;;9.97;60.58
19086;BME280;9675;51.538;6.728;2023-03-16T12:03:03;101146.19;;;10.09;60.31
19086;BME280;9675;51.538;6.728;2023-03-16T12:05:53;101139.81;;;10.17;59.92
19086;BME280;9675;51.538;6.728;2023-03-16T12:08:42;101131.00;;;10.28;59.56
19086;BME280;9675;51.538;6.728;2023-03-16T12:11:17;101109.16;;;10.36;59.34
19086;BME280;9675;51.538;6.728;2023-03-16T12:14:10;101121.53;;;10.43;58.44
19086;BME280;9675;51.538;6.728;2023-03-16T12:16:47;101124.59;;;10.52;59.11
19086;BME280;9675;51.538;6.728;2023-03-16T12:19:24;101121.41;;;10.56;59.17
19086;BME280;9675;51.538;6.728;2023-03-16T12:22:04;101121.66;;;10.61;58.71
19086;BME280;9675;51.538;6.728;2023-03-16T12:24:42;101114.06;;;10.64;59.04
19086;BME280;9675;51.538;6.728;2023-03-16T12:27:15;101111.75;;;10.69;58.13
19086;BME280;9675;51.538;6.728;2023-03-16T12:29:55;101102.50;;;10.72;57.66
19086;BME280;9675;51.538;6.728;2023-03-16T12:32:40;101100.00;;;10.74;58.00
19086;BME280;9675;51.538;6.728;2023-03-16T12:35:26;101095.03;;;10.77;57.87
19086;BME280;9675;51.538;6.728;2023-03-16T12:38:17;101089.31;;;10.82;57.69
19086;BME280;9675;51.538;6.728;2023-03-16T12:40:56;101075.53;;;10.82;57.67
19086;BME280;9675;51.538;6.728;2023-03-16T12:43:40;101083.41;;;10.85;56.90
19086;BME280;9675;51.538;6.728;2023-03-16T12:46:14;101081.97;;;10.90;56.88
19086;BME280;9675;51.538;6.728;2023-03-16T12:48:50;101067.38;;;10.90;56.94
19086;BME280;9675;51.538;6.728;2023-03-16T12:51:18;101064.91;;;10.92;57.00
19086;BME280;9675;51.538;6.728;2023-03-16T12:53:52;101062.38;;;10.93;56.74
19086;BME280;9675;51.538;6.728;2023-03-16T12:56:28;101048.88;;;10.97;56.86
19086;BME280;9675;51.538;6.728;2023-03-16T12:59:00;101052.34;;;10.98;57.53
19086;BME280;9675;51.538;6.728;2023-03-16T13:01:35;101049.91;;;11.01;56.78
19086;BME280;9675;51.538;6.728;2023-03-16T13:04:11;101047.41;;;11.02;57.14
19086;BME280;9675;51.538;6.728;2023-03-16T13:06:44;101042.50;;;11.07;57.28
19086;BME280;9675;51.538;6.728;2023-03-16T13:09:18;101037.56;;;11.12;57.32
19086;BME280;9675;51.538;6.728;2023-03-16T13:11:48;101042.16;;;11.17;57.12
19086;BME280;9675;51.538;6.728;2023-03-16T13:14:33;101041.41;;;11.20;56.32
19086;BME280;9675;51.538;6.728;2023-03-16T13:17:26;101042.44;;;11.23;56.28
19086;BME280;9675;51.538;6.728;2023-03-16T13:20:24;101040.19;;;11.29;55.98
19086;BME280;9675;51.538;6.728;2023-03-16T13:23:18;101037.88;;;11.35;56.50
19086;BME280;9675;51.538;6.728;2023-03-16T13:26:02;101031.44;;;11.43;56.20
19086;BME280;9675;51.538;6.728;2023-03-16T13:28:34;101026.41;;;11.46;54.92
19086;BME280;9675;51.538;6.728;2023-03-16T13:31:03;101027.69;;;11.55;55.73
19086;BME280;9675;51.538;6.728;2023-03-16T13:33:33;101023.75;;;11.63;55.79
19086;BME280;9675;51.538;6.728;2023-03-16T13:36:04;101023.31;;;11.71;56.37